Terminal Aerodrome Forecast
Issued by NWS

Home | Current Version | Previous Version | Text Only | Print | Product List | Glossary On
Versions: 1 2 3 4 5 6 7 8 9 10 11 12 13 14
217
FTUS46 KLOX 051132
TAFBUR
TAF
KBUR 051132Z 0512/0612 VRB03KT P6SM SCT250
     FM052000 17008KT P6SM SCT250
     FM060300 VRB03KT P6SM SCT250=

USA.gov is the U.S. government's official web portal to all federal, state and local government web resources and services.